createdAt,value
2023-02-21T00:02:40.556Z,6.53
2023-02-21T00:05:26.982Z,5.37
2023-02-21T00:08:12.910Z,3.40
2023-02-21T00:10:58.851Z,3.97
2023-02-21T00:13:46.231Z,3.23
2023-02-21T00:16:35.265Z,4.67
2023-02-21T00:19:21.986Z,3.43
2023-02-21T00:22:07.766Z,4.47
2023-02-21T00:24:54.113Z,4.97
2023-02-21T00:27:40.719Z,3.93
2023-02-21T00:30:30.176Z,2.87
2023-02-21T00:33:17.430Z,5.37
2023-02-21T00:36:03.531Z,4.40
2023-02-21T00:38:49.572Z,3.00
2023-02-21T00:41:35.664Z,3.97
2023-02-21T00:44:21.680Z,3.83
2023-02-21T00:47:09.769Z,4.13
2023-02-21T00:49:55.653Z,6.30
2023-02-21T00:52:42.014Z,4.30
2023-02-21T00:55:28.039Z,4.80
2023-02-21T00:58:13.985Z,3.20
2023-02-21T01:01:00.128Z,2.53
2023-02-21T01:03:47.279Z,4.73
2023-02-21T01:06:33.620Z,4.50
2023-02-21T01:09:19.623Z,5.40
2023-02-21T01:12:05.557Z,4.47
2023-02-21T01:14:52.016Z,6.73
2023-02-21T01:17:37.956Z,4.90
2023-02-21T01:20:27.096Z,4.03
2023-02-21T01:23:13.287Z,5.33
2023-02-21T01:26:01.961Z,4.50
2023-02-21T01:28:47.869Z,5.53
2023-02-21T01:31:37.119Z,7.20
2023-02-21T01:34:23.704Z,5.13
2023-02-21T01:37:11.565Z,5.30
2023-02-21T01:39:57.905Z,6.23
2023-02-21T01:42:46.407Z,6.53
2023-02-21T01:46:10.410Z,7.40
2023-02-21T01:48:57.006Z,4.47
2023-02-21T01:51:52.730Z,4.97
2023-02-21T01:54:50.324Z,5.10
2023-02-21T01:57:38.210Z,4.50
2023-02-21T02:00:30.262Z,7.87
2023-02-21T02:03:19.817Z,5.20
2023-02-21T02:06:12.899Z,5.20
2023-02-21T02:08:59.601Z,6.17
2023-02-21T02:12:23.267Z,4.87
2023-02-21T02:15:30.621Z,5.93
2023-02-21T02:18:28.685Z,5.43
2023-02-21T02:21:48.229Z,4.57
2023-02-21T02:25:06.412Z,5.63
2023-02-21T02:28:12.784Z,5.30
2023-02-21T02:31:19.665Z,8.33
2023-02-21T02:34:46.234Z,6.33
2023-02-21T02:37:25.731Z,7.13
2023-02-21T02:40:04.812Z,5.23
2023-02-21T02:42:49.809Z,5.63
2023-02-21T02:45:29.931Z,4.50
2023-02-21T02:48:09.692Z,5.53
2023-02-21T02:50:42.681Z,8.07
2023-02-21T02:53:12.171Z,6.77
2023-02-21T02:55:50.369Z,8.87
2023-02-21T02:58:22.698Z,7.07
2023-02-21T03:01:06.704Z,6.50
2023-02-21T03:03:55.997Z,4.77
2023-02-21T03:06:39.035Z,4.63
2023-02-21T03:09:15.707Z,5.00
2023-02-21T03:11:57.184Z,5.10
2023-02-21T03:14:32.351Z,5.37
2023-02-21T03:17:09.385Z,7.97
2023-02-21T03:19:43.834Z,6.57
2023-02-21T03:22:18.176Z,5.83
2023-02-21T03:24:50.493Z,5.80
2023-02-21T03:27:23.256Z,6.90
2023-02-21T03:30:22.011Z,7.17
2023-02-21T03:32:54.605Z,4.80
2023-02-21T03:35:30.326Z,5.93
2023-02-21T03:38:01.684Z,5.43
2023-02-21T03:40:33.819Z,6.17
2023-02-21T03:43:07.225Z,6.23
2023-02-21T03:45:44.531Z,9.17
2023-02-21T03:48:26.099Z,9.07
2023-02-21T03:51:02.708Z,8.50
2023-02-21T03:53:37.970Z,10.17
2023-02-21T03:56:08.576Z,6.07
2023-02-21T03:59:00.261Z,8.27
2023-02-21T04:01:28.672Z,8.60
2023-02-21T04:03:57.340Z,9.30
2023-02-21T04:06:25.826Z,10.47
2023-02-21T04:08:55.581Z,6.57
2023-02-21T04:11:26.354Z,6.67
2023-02-21T04:13:55.871Z,6.53
2023-02-21T04:16:25.547Z,8.40
2023-02-21T04:18:57.327Z,6.90
2023-02-21T04:21:26.718Z,7.90
2023-02-21T04:23:58.820Z,7.20
2023-02-21T04:26:31.847Z,8.27
2023-02-21T04:29:00.821Z,8.40
2023-02-21T04:31:29.897Z,7.23
2023-02-21T04:34:11.330Z,8.43
2023-02-21T04:36:44.503Z,8.10
2023-02-21T04:39:14.529Z,7.63
2023-02-21T04:41:43.390Z,8.27
2023-02-21T04:44:13.150Z,8.57
2023-02-21T04:46:41.512Z,7.07
2023-02-21T04:49:12.568Z,8.07
2023-02-21T04:51:41.076Z,9.43
2023-02-21T04:54:09.665Z,7.77
2023-02-21T04:56:39.769Z,8.20
2023-02-21T04:59:08.677Z,8.83
2023-02-21T05:01:37.394Z,7.80
2023-02-21T05:04:07.349Z,7.97
2023-02-21T05:06:36.108Z,7.27
2023-02-21T05:09:04.807Z,7.97
2023-02-21T05:11:35.804Z,9.17
2023-02-21T05:14:05.723Z,9.37
2023-02-21T05:16:34.024Z,8.83
2023-02-21T05:19:02.817Z,9.37
2023-02-21T05:21:35.432Z,8.67
2023-02-21T05:24:04.710Z,11.93
2023-02-21T05:26:38.081Z,7.67
2023-02-21T05:29:07.843Z,9.23
2023-02-21T05:31:36.251Z,8.77
2023-02-21T05:34:04.587Z,9.73
2023-02-21T05:36:33.256Z,8.93
2023-02-21T05:39:02.040Z,8.30
2023-02-21T05:41:30.601Z,9.97
2023-02-21T05:43:58.977Z,11.00
2023-02-21T05:46:31.760Z,9.50
2023-02-21T05:49:03.313Z,8.67
2023-02-21T05:51:37.640Z,10.47
2023-02-21T05:54:07.488Z,9.57
2023-02-21T05:56:40.704Z,10.70
2023-02-21T05:59:09.917Z,8.83
2023-02-21T06:01:40.863Z,8.97
2023-02-21T06:04:09.690Z,8.67
2023-02-21T06:06:38.399Z,8.73
2023-02-21T06:09:08.303Z,6.57
2023-02-21T06:11:40.413Z,7.10
2023-02-21T06:14:17.118Z,5.40
2023-02-21T06:16:47.645Z,7.07
2023-02-21T06:19:17.850Z,6.27
2023-02-21T06:21:47.376Z,8.90
2023-02-21T06:24:16.054Z,7.47
2023-02-21T06:26:45.078Z,6.90
2023-02-21T06:29:13.808Z,7.60
2023-02-21T06:31:42.558Z,7.57
2023-02-21T06:34:12.937Z,7.93
2023-02-21T06:36:41.638Z,10.40
2023-02-21T06:39:13.332Z,14.43
2023-02-21T06:41:41.659Z,10.53
2023-02-21T06:44:10.133Z,8.90
2023-02-21T06:46:38.955Z,10.33
2023-02-21T06:49:07.298Z,10.57
2023-02-21T06:51:39.153Z,10.73
2023-02-21T06:54:09.008Z,12.83
2023-02-21T06:56:38.038Z,14.30
2023-02-21T06:59:06.800Z,10.10
2023-02-21T07:01:35.316Z,13.93
2023-02-21T07:04:04.087Z,15.77
2023-02-21T07:06:33.584Z,11.90
2023-02-21T07:09:07.603Z,13.97
2023-02-21T07:11:37.120Z,15.17
2023-02-21T07:14:05.905Z,15.90
2023-02-21T07:16:35.078Z,16.30
2023-02-21T07:19:03.430Z,12.90
2023-02-21T07:21:32.742Z,14.93
2023-02-21T07:24:02.490Z,9.20
2023-02-21T07:26:30.840Z,18.27
2023-02-21T07:28:59.190Z,12.10
2023-02-21T07:31:27.600Z,11.33
2023-02-21T07:33:55.944Z,10.60
2023-02-21T07:36:24.352Z,12.03
2023-02-21T07:38:52.758Z,16.67
2023-02-21T07:41:22.447Z,11.77
2023-02-21T07:43:51.223Z,13.40
2023-02-21T07:46:19.772Z,11.10
2023-02-21T07:48:48.590Z,12.57
2023-02-21T07:51:17.392Z,13.30
2023-02-21T07:53:46.079Z,11.67
2023-02-21T07:56:15.398Z,10.83
2023-02-21T07:58:45.360Z,13.57
2023-02-21T08:01:14.968Z,14.00
2023-02-21T08:03:43.497Z,11.60
2023-02-21T08:06:13.385Z,10.50
2023-02-21T08:08:41.756Z,12.00
2023-02-21T08:11:10.105Z,9.00
2023-02-21T08:13:38.447Z,10.93
2023-02-21T08:16:08.712Z,12.53
2023-02-21T08:18:37.396Z,15.00
2023-02-21T08:21:10.111Z,12.37
2023-02-21T08:23:38.573Z,12.00
2023-02-21T08:26:07.474Z,9.83
2023-02-21T08:28:37.317Z,9.67
2023-02-21T08:31:08.318Z,13.50
2023-02-21T08:33:36.711Z,12.03
2023-02-21T08:36:06.190Z,14.52
2023-02-21T08:38:34.552Z,12.75
2023-02-21T08:41:04.490Z,12.40
2023-02-21T08:43:34.593Z,11.05
2023-02-21T08:46:03.121Z,11.50
2023-02-21T08:48:33.061Z,10.57
2023-02-21T08:51:05.219Z,11.85
2023-02-21T08:53:33.490Z,11.10
2023-02-21T08:56:02.931Z,11.05
2023-02-21T08:58:37.869Z,9.20
2023-02-21T09:01:07.165Z,14.38
2023-02-21T09:03:38.031Z,11.43
2023-02-21T09:06:07.115Z,10.88
2023-02-21T09:08:36.837Z,11.02
2023-02-21T09:11:06.029Z,10.43
2023-02-21T09:13:35.278Z,12.00
2023-02-21T09:16:05.014Z,12.98
2023-02-21T09:18:33.976Z,8.50
2023-02-21T09:21:04.004Z,9.18
2023-02-21T09:23:35.636Z,9.52
2023-02-21T09:26:03.999Z,10.32
2023-02-21T09:28:32.386Z,10.88
2023-02-21T09:31:00.727Z,11.43
2023-02-21T09:33:31.080Z,10.60
2023-02-21T09:35:59.482Z,7.85
2023-02-21T09:38:29.182Z,14.88
2023-02-21T09:41:02.824Z,8.02
2023-02-21T09:43:36.179Z,10.48
2023-02-21T09:46:10.885Z,7.55
2023-02-21T09:48:40.616Z,6.53
2023-02-21T09:51:14.533Z,9.55
2023-02-21T09:53:49.340Z,7.43
2023-02-21T09:56:29.508Z,7.75
2023-02-21T09:58:59.048Z,7.55
2023-02-21T10:01:48.558Z,7.55
2023-02-21T10:04:33.187Z,9.20
2023-02-21T10:07:10.238Z,9.35
2023-02-21T10:09:50.824Z,8.38
2023-02-21T10:12:27.512Z,8.00
2023-02-21T10:15:21.370Z,7.57
2023-02-21T10:18:01.775Z,6.28
2023-02-21T10:20:39.879Z,7.00
2023-02-21T10:23:18.322Z,8.23
2023-02-21T10:25:49.214Z,9.85
2023-02-21T10:28:21.860Z,6.97
2023-02-21T10:30:53.441Z,7.15
2023-02-21T10:33:21.970Z,7.20
2023-02-21T10:35:50.411Z,7.30
2023-02-21T10:38:25.205Z,7.57
2023-02-21T10:40:59.540Z,7.32
2023-02-21T10:43:38.805Z,5.72
2023-02-21T10:46:17.973Z,8.23
2023-02-21T10:48:52.703Z,5.93
2023-02-21T10:51:32.909Z,6.47
2023-02-21T10:54:21.875Z,6.93
2023-02-21T10:56:54.076Z,6.15
2023-02-21T10:59:25.986Z,7.05
2023-02-21T11:01:56.318Z,7.03
2023-02-21T11:04:34.622Z,6.45
2023-02-21T11:07:09.424Z,7.32
2023-02-21T11:09:42.675Z,6.93
2023-02-21T11:12:25.986Z,6.38
2023-02-21T11:15:27.608Z,8.10
2023-02-21T11:18:08.030Z,5.88
2023-02-21T11:20:36.782Z,8.98
2023-02-21T11:23:07.849Z,6.72
2023-02-21T11:25:41.779Z,6.30
2023-02-21T11:28:22.019Z,6.97
2023-02-21T11:31:08.674Z,7.22
2023-02-21T11:33:42.482Z,5.32
2023-02-21T11:36:18.069Z,6.13
2023-02-21T11:39:02.732Z,6.13
2023-02-21T11:41:38.301Z,8.05
2023-02-21T11:44:27.449Z,6.63
2023-02-21T11:47:08.279Z,5.45
2023-02-21T11:49:52.176Z,8.40
2023-02-21T11:52:27.259Z,8.20
2023-02-21T11:54:56.076Z,5.78
2023-02-21T11:57:37.120Z,5.15
2023-02-21T12:00:23.119Z,5.47
2023-02-21T12:03:10.354Z,7.25
2023-02-21T12:05:58.931Z,5.13
2023-02-21T12:08:52.842Z,6.93
2023-02-21T12:11:45.328Z,6.75
2023-02-21T12:14:56.334Z,7.32
2023-02-21T12:17:52.180Z,6.13
2023-02-21T12:21:02.262Z,4.70
2023-02-21T12:23:52.882Z,5.57
2023-02-21T12:26:39.633Z,7.20
2023-02-21T12:29:34.945Z,6.05
2023-02-21T12:32:34.547Z,6.85
2023-02-21T12:35:40.814Z,5.35
2023-02-21T12:38:20.112Z,4.82
2023-02-21T12:41:03.974Z,6.68
2023-02-21T12:43:54.386Z,8.40
2023-02-21T12:46:32.279Z,5.97
2023-02-21T12:49:13.726Z,6.28
2023-02-21T12:51:49.406Z,7.25
2023-02-21T12:54:28.005Z,4.45
2023-02-21T12:57:04.018Z,5.03
2023-02-21T12:59:47.938Z,6.45
2023-02-21T13:02:28.555Z,5.07
2023-02-21T13:05:06.491Z,7.05
2023-02-21T13:07:45.174Z,5.43
2023-02-21T13:10:20.686Z,5.80
2023-02-21T13:12:58.270Z,6.13
2023-02-21T13:15:31.060Z,5.53
2023-02-21T13:18:06.127Z,6.90
2023-02-21T13:20:43.641Z,5.28
2023-02-21T13:24:25.851Z,6.53
2023-02-21T13:27:42.187Z,7.13
2023-02-21T13:30:19.875Z,4.65
2023-02-21T13:32:56.054Z,5.07
2023-02-21T13:35:33.294Z,4.95
2023-02-21T13:38:07.998Z,5.30
2023-02-21T13:40:42.885Z,6.72
2023-02-21T13:43:17.328Z,5.43
2023-02-21T13:45:46.028Z,6.13
2023-02-21T13:48:32.851Z,4.78
2023-02-21T13:51:02.399Z,7.60
2023-02-21T13:53:35.481Z,4.93
2023-02-21T13:56:20.601Z,7.18
2023-02-21T13:58:50.695Z,6.75
2023-02-21T14:01:54.101Z,5.63
2023-02-21T14:05:02.993Z,8.45
2023-02-21T14:08:01.211Z,6.70
2023-02-21T14:10:42.408Z,7.32
2023-02-21T14:13:24.819Z,10.15
2023-02-21T14:16:00.988Z,4.47
2023-02-21T14:18:32.547Z,5.43
2023-02-21T14:21:03.290Z,5.82
2023-02-21T14:23:43.218Z,5.00
2023-02-21T14:26:42.296Z,6.30
2023-02-21T14:29:41.246Z,7.63
2023-02-21T14:32:34.829Z,5.90
2023-02-21T14:35:23.623Z,5.68
2023-02-21T14:38:00.447Z,6.60
2023-02-21T14:40:47.263Z,6.53
2023-02-21T14:43:56.602Z,5.80
2023-02-21T14:47:06.971Z,5.75
2023-02-21T14:50:32.405Z,7.20
2023-02-21T14:53:35.909Z,6.30
2023-02-21T14:56:48.210Z,5.20
2023-02-21T14:59:58.316Z,4.80
2023-02-21T15:02:36.496Z,4.57
2023-02-21T15:05:16.838Z,5.45
2023-02-21T15:08:00.588Z,5.65
2023-02-21T15:10:32.000Z,6.18
2023-02-21T15:13:03.720Z,6.43
2023-02-21T15:15:37.045Z,5.95
2023-02-21T15:18:09.213Z,9.23
2023-02-21T15:20:40.424Z,4.53
2023-02-21T15:23:15.533Z,5.80
2023-02-21T15:25:45.027Z,4.05
2023-02-21T15:28:25.802Z,4.28
2023-02-21T15:31:03.357Z,3.95
2023-02-21T15:33:36.330Z,4.72
2023-02-21T15:36:10.015Z,6.22
2023-02-21T15:38:47.054Z,5.35
2023-02-21T15:41:30.792Z,4.25
2023-02-21T15:44:06.290Z,4.30
2023-02-21T15:46:45.459Z,5.10
2023-02-21T15:49:22.527Z,4.25
2023-02-21T15:51:51.786Z,4.13
2023-02-21T15:54:29.054Z,4.60
2023-02-21T15:57:24.943Z,3.85
2023-02-21T16:00:20.980Z,3.88
2023-02-21T16:02:50.859Z,5.47
2023-02-21T16:05:28.548Z,4.25
2023-02-21T16:08:04.747Z,6.15
2023-02-21T16:10:34.188Z,5.85
2023-02-21T16:13:03.356Z,5.53
2023-02-21T16:15:36.398Z,3.78
2023-02-21T16:18:10.361Z,4.43
2023-02-21T16:20:41.688Z,7.07
2023-02-21T16:23:25.038Z,5.68
2023-02-21T16:26:00.033Z,7.20
2023-02-21T16:28:29.060Z,4.47
2023-02-21T16:31:00.921Z,5.15
2023-02-21T16:33:32.039Z,6.07
2023-02-21T16:36:05.542Z,4.85
2023-02-21T16:38:34.156Z,6.60
2023-02-21T16:41:03.444Z,10.57
2023-02-21T16:43:31.932Z,12.48
2023-02-21T16:46:00.766Z,10.05
2023-02-21T16:51:35.280Z,4.28
2023-02-21T16:54:04.607Z,3.70
2023-02-21T16:56:33.076Z,3.30
2023-02-21T16:59:01.905Z,4.13
2023-02-21T17:01:34.597Z,3.38
2023-02-21T17:04:06.805Z,2.55
2023-02-21T17:06:35.937Z,2.53
2023-02-21T17:09:04.945Z,3.63
2023-02-21T17:11:33.259Z,4.53
2023-02-21T17:14:01.971Z,2.55
2023-02-21T17:16:30.371Z,4.03
2023-02-21T17:18:58.878Z,4.40
2023-02-21T17:21:28.850Z,5.13
2023-02-21T17:23:57.536Z,4.50
2023-02-21T17:26:26.077Z,3.67
2023-02-21T17:32:09.092Z,4.33
2023-02-21T17:40:38.203Z,3.27
2023-02-21T17:46:24.903Z,3.60
2023-02-21T17:54:31.563Z,3.03
2023-02-21T17:57:00.019Z,3.03
2023-02-21T18:16:33.192Z,3.77
2023-02-21T18:19:08.087Z,3.80
2023-02-21T18:21:41.061Z,3.30
2023-02-21T18:24:10.221Z,4.03
2023-02-21T19:10:12.105Z,5.13
2023-02-21T19:12:40.651Z,3.93
2023-02-21T19:15:10.655Z,2.97
2023-02-21T19:17:39.174Z,3.17
2023-02-21T19:20:09.538Z,4.67
2023-02-21T19:22:39.910Z,5.07
2023-02-21T19:25:09.728Z,6.33
2023-02-21T19:27:38.520Z,5.53
2023-02-21T19:30:08.904Z,8.77
2023-02-21T19:32:38.073Z,6.73
2023-02-21T19:35:08.605Z,5.10
2023-02-21T19:43:22.187Z,5.63
2023-02-21T19:45:52.261Z,5.17
2023-02-21T20:21:06.014Z,5.37
2023-02-21T20:29:33.009Z,4.57
2023-02-21T20:32:04.167Z,5.03
2023-02-21T20:34:32.882Z,4.97
2023-02-21T20:37:02.842Z,8.03
2023-02-21T20:42:25.295Z,14.33
2023-02-21T20:44:57.021Z,22.87
2023-02-21T20:55:37.499Z,5.43
2023-02-21T21:00:54.607Z,6.40
2023-02-21T21:06:16.645Z,10.90
2023-02-21T21:15:02.358Z,10.43
2023-02-21T21:20:38.872Z,7.00
2023-02-21T21:23:08.561Z,4.77
2023-02-21T21:25:51.722Z,9.20
2023-02-21T21:31:18.585Z,8.30
2023-02-21T21:42:32.630Z,10.77
2023-02-21T21:45:11.348Z,14.57
2023-02-21T21:50:59.026Z,8.50
2023-02-21T21:53:27.933Z,9.53
2023-02-21T21:55:57.683Z,19.03
2023-02-21T21:58:27.372Z,22.63
2023-02-21T22:00:55.714Z,8.73
2023-02-21T22:03:24.182Z,9.53
2023-02-21T22:08:45.422Z,6.23
2023-02-21T22:14:28.754Z,9.00
2023-02-21T22:16:57.505Z,7.97
2023-02-21T22:19:28.942Z,7.33
2023-02-21T22:21:59.512Z,5.30
2023-02-21T22:27:29.202Z,4.37
2023-02-21T22:30:01.925Z,4.90
2023-02-21T22:32:30.273Z,3.97
2023-02-21T22:34:58.617Z,4.93
2023-02-21T22:37:30.182Z,4.37
2023-02-21T22:40:13.953Z,4.37
2023-02-21T22:43:10.457Z,4.60
2023-02-21T22:46:04.702Z,3.70
2023-02-21T22:49:06.964Z,4.03
2023-02-21T22:54:56.485Z,6.53
2023-02-21T22:57:44.769Z,7.30
2023-02-21T23:00:44.988Z,6.33
2023-02-21T23:20:15.693Z,8.33
2023-02-21T23:22:48.831Z,6.57
2023-02-21T23:28:28.859Z,6.63
2023-02-21T23:30:58.416Z,6.40
2023-02-21T23:33:29.778Z,7.27
2023-02-21T23:36:18.607Z,7.20
2023-02-21T23:38:49.129Z,6.73
2023-02-21T23:41:40.993Z,6.40
2023-02-21T23:44:12.261Z,6.10
2023-02-21T23:46:47.261Z,5.53
2023-02-21T23:52:21.368Z,7.90
2023-02-21T23:54:55.971Z,4.83
2023-02-21T23:57:31.388Z,10.53
